createdAt,value
2017-12-08T00:02:23.772Z,99200.73
2017-12-08T00:05:25.063Z,99204.11
2017-12-08T00:08:27.042Z,99204.23
2017-12-08T00:11:28.369Z,99203.86
2017-12-08T00:14:29.613Z,99204.08
2017-12-08T00:17:30.873Z,99206.30
2017-12-08T00:20:32.861Z,99199.34
2017-12-08T00:23:34.116Z,99205.75
2017-12-08T00:26:35.400Z,99204.45
2017-12-08T00:29:36.647Z,99205.62
2017-12-08T00:32:38.647Z,99214.73
2017-12-08T00:35:40.608Z,99213.50
2017-12-08T00:38:42.619Z,99213.45
2017-12-08T00:41:43.849Z,99207.53
2017-12-08T00:44:45.085Z,99226.78
2017-12-08T00:47:47.110Z,99215.00
2017-12-08T00:50:48.345Z,99213.41
2017-12-08T00:53:50.348Z,99221.08
2017-12-08T00:56:52.305Z,99216.09
2017-12-08T00:59:53.575Z,99219.18
2017-12-08T01:02:55.556Z,99226.91
2017-12-08T01:05:56.805Z,99218.92
2017-12-08T01:08:58.014Z,99212.65
2017-12-08T01:11:59.324Z,99207.58
2017-12-08T01:15:01.308Z,99218.73
2017-12-08T01:18:02.586Z,99216.15
2017-12-08T01:21:04.585Z,99217.78
2017-12-08T01:24:05.806Z,99221.69
2017-12-08T01:27:07.785Z,99227.02
2017-12-08T01:30:09.028Z,99227.84
2017-12-08T01:33:10.284Z,99228.16
2017-12-08T01:36:11.524Z,99232.67
2017-12-08T01:39:12.792Z,99241.06
2017-12-08T01:42:14.092Z,99237.31
2017-12-08T01:45:15.345Z,99244.50
2017-12-08T01:48:16.652Z,99254.64
2017-12-08T01:51:17.918Z,99242.90
2017-12-08T01:54:19.204Z,99241.63
2017-12-08T01:57:21.163Z,99233.61
2017-12-08T02:00:23.176Z,99244.38
2017-12-08T02:03:25.899Z,99238.02
2017-12-08T02:06:27.956Z,99247.12
2017-12-08T02:09:29.248Z,99255.77
2017-12-08T02:12:31.943Z,99249.50
2017-12-08T02:15:34.149Z,99243.05
2017-12-08T02:18:37.696Z,99247.77
2017-12-08T02:21:39.309Z,99237.05
2017-12-08T02:24:41.353Z,99242.31
2017-12-08T02:27:44.793Z,99250.30
2017-12-08T02:30:46.901Z,99243.69
2017-12-08T02:33:49.811Z,99251.98
2017-12-08T02:36:51.159Z,99255.84
2017-12-08T02:39:52.938Z,99245.39
2017-12-08T02:42:55.494Z,99244.39
2017-12-08T02:45:59.540Z,99237.08
2017-12-08T02:49:01.589Z,99246.14
2017-12-08T02:52:02.952Z,99243.27
2017-12-08T02:55:06.545Z,99250.03
2017-12-08T02:58:07.813Z,99251.05
2017-12-08T03:01:09.111Z,99252.55
2017-12-08T03:04:11.466Z,99245.77
2017-12-08T03:07:13.087Z,99250.66
2017-12-08T03:10:15.657Z,99243.91
2017-12-08T03:13:17.705Z,99244.13
2017-12-08T03:16:18.980Z,99234.39
2017-12-08T03:19:20.219Z,99244.66
2017-12-08T03:22:21.500Z,99227.66
2017-12-08T03:25:23.456Z,99236.41
2017-12-08T03:28:25.459Z,99239.65
2017-12-08T03:31:26.734Z,99231.98
2017-12-08T03:34:27.976Z,99231.05
2017-12-08T03:37:29.287Z,99239.78
2017-12-08T03:40:30.537Z,99234.60
2017-12-08T03:43:31.864Z,99226.41
2017-12-08T03:46:33.838Z,99240.69
2017-12-08T03:49:35.857Z,99238.08
2017-12-08T03:52:37.089Z,99240.69
2017-12-08T03:55:38.352Z,99247.70
2017-12-08T03:58:39.677Z,99231.41
2017-12-08T04:01:40.953Z,99233.79
2017-12-08T04:04:42.285Z,99232.30
2017-12-08T04:07:43.521Z,99238.45
2017-12-08T04:10:44.757Z,99248.12
2017-12-08T04:13:46.005Z,99226.63
2017-12-08T04:16:47.266Z,99230.63
2017-12-08T04:19:48.529Z,99244.52
2017-12-08T04:22:49.801Z,99238.52
2017-12-08T04:25:51.068Z,99233.08
2017-12-08T04:28:52.319Z,99234.13
2017-12-08T04:31:54.348Z,99249.78
2017-12-08T04:34:55.603Z,99243.95
2017-12-08T04:37:56.900Z,99250.69
2017-12-08T04:40:58.186Z,99252.84
2017-12-08T04:43:59.507Z,99250.92
2017-12-08T04:47:00.738Z,99252.15
2017-12-08T04:50:02.775Z,99241.48
2017-12-08T04:53:04.072Z,99251.36
2017-12-08T04:56:05.332Z,99267.67
2017-12-08T04:59:06.628Z,99250.15
2017-12-08T05:02:07.855Z,99249.26
2017-12-08T05:05:09.883Z,99250.84
2017-12-08T05:08:11.177Z,99263.55
2017-12-08T05:11:12.489Z,99263.61
2017-12-08T05:14:13.745Z,99271.14
2017-12-08T05:17:15.018Z,99275.05
2017-12-08T05:20:16.304Z,99268.75
2017-12-08T05:23:18.359Z,99262.75
2017-12-08T05:26:19.624Z,99265.62
2017-12-08T05:29:21.692Z,99267.33
2017-12-08T05:32:23.729Z,99265.66
2017-12-08T05:35:25.028Z,99269.31
2017-12-08T05:38:26.286Z,99272.08
2017-12-08T05:41:27.562Z,99273.45
2017-12-08T05:44:28.896Z,99283.45
2017-12-08T05:47:30.121Z,99281.09
2017-12-08T05:50:31.414Z,99279.63
2017-12-08T05:53:32.677Z,99283.71
2017-12-08T05:56:33.962Z,99284.16
2017-12-08T05:59:35.190Z,99269.30
2017-12-08T06:02:37.240Z,99269.14
2017-12-08T06:05:38.487Z,99280.42
2017-12-08T06:08:39.742Z,99262.77
2017-12-08T06:11:41.769Z,99261.14
2017-12-08T06:14:43.050Z,99263.48
2017-12-08T06:17:44.329Z,99262.05
2017-12-08T06:20:45.553Z,99259.75
2017-12-08T06:23:47.589Z,99260.31
2017-12-08T06:26:48.855Z,99265.70
2017-12-08T06:29:50.137Z,99262.68
2017-12-08T06:32:51.369Z,99260.33
2017-12-08T06:35:53.370Z,99257.55
2017-12-08T06:38:54.621Z,99258.78
2017-12-08T06:41:55.872Z,99264.28
2017-12-08T06:44:57.176Z,99261.56
2017-12-08T06:47:59.121Z,99255.70
2017-12-08T06:51:00.393Z,99262.23
2017-12-08T06:54:02.344Z,99266.97
2017-12-08T06:57:03.619Z,99266.39
2017-12-08T07:00:04.840Z,99272.09
2017-12-08T07:03:06.858Z,99277.44
2017-12-08T07:06:08.123Z,99280.58
2017-12-08T07:09:09.436Z,99277.07
2017-12-08T07:12:10.716Z,99284.81
2017-12-08T07:15:12.185Z,99282.83
2017-12-08T07:18:13.512Z,99292.80
2017-12-08T07:21:14.749Z,99294.49
2017-12-08T07:24:16.064Z,99302.96
2017-12-08T07:27:18.078Z,99299.67
2017-12-08T07:30:19.383Z,99284.29
2017-12-08T07:33:21.372Z,99297.72
2017-12-08T07:36:22.665Z,99308.20
2017-12-08T07:39:23.913Z,99325.48
2017-12-08T07:42:25.186Z,99318.53
2017-12-08T07:45:27.233Z,99303.64
2017-12-08T07:48:28.495Z,99308.26
2017-12-08T07:51:30.550Z,99311.81
2017-12-08T07:54:31.785Z,99302.04
2017-12-08T07:57:33.092Z,99297.67
2017-12-08T08:00:34.336Z,99286.83
2017-12-08T08:03:35.616Z,99298.04
2017-12-08T08:06:36.869Z,99297.14
2017-12-08T08:09:38.151Z,99294.30
2017-12-08T08:12:40.190Z,99297.89
2017-12-08T08:15:41.457Z,99305.36
2017-12-08T08:18:42.755Z,99306.53
2017-12-08T08:21:44.038Z,99309.32
2017-12-08T08:24:45.340Z,99288.84
2017-12-08T08:27:46.660Z,99310.44
2017-12-08T08:30:48.656Z,99301.04
2017-12-08T08:33:49.957Z,99295.89
2017-12-08T08:36:51.240Z,99287.42
2017-12-08T08:39:52.533Z,99300.58
2017-12-08T08:42:53.809Z,99305.79
2017-12-08T08:45:55.129Z,99307.05
2017-12-08T08:48:56.401Z,99301.25
2017-12-08T08:51:57.758Z,99288.80
2017-12-08T08:54:59.053Z,99302.73
2017-12-08T08:58:00.306Z,99291.70
2017-12-08T09:01:01.581Z,99289.50
2017-12-08T09:04:02.841Z,99290.48
2017-12-08T09:07:04.106Z,99288.58
2017-12-08T09:10:06.116Z,99269.27
2017-12-08T09:13:07.415Z,99272.05
2017-12-08T09:16:08.685Z,99266.05
2017-12-08T09:19:10.755Z,99265.02
2017-12-08T09:22:12.014Z,99267.35
2017-12-08T09:25:13.329Z,99273.25
2017-12-08T09:28:14.640Z,99260.19
2017-12-08T09:31:15.859Z,99269.16
2017-12-08T09:34:17.210Z,99275.27
2017-12-08T09:37:18.413Z,99286.00
2017-12-08T09:40:19.715Z,99293.59
2017-12-08T09:43:21.004Z,99288.59
2017-12-08T09:46:22.301Z,99288.37
2017-12-08T09:49:23.569Z,99288.83
2017-12-08T09:52:24.868Z,99286.50
2017-12-08T09:55:26.163Z,99283.25
2017-12-08T09:58:27.413Z,99292.55
2017-12-08T10:01:28.706Z,99283.39
2017-12-08T10:04:29.976Z,99272.15
2017-12-08T10:07:32.009Z,99275.75
2017-12-08T10:10:33.285Z,99283.13
2017-12-08T10:13:35.355Z,99277.17
2017-12-08T10:16:37.353Z,99273.41
2017-12-08T10:19:38.650Z,99273.70
2017-12-08T10:22:39.966Z,99267.69
2017-12-08T10:25:41.248Z,99247.14
2017-12-08T10:28:42.541Z,99249.78
2017-12-08T10:31:43.825Z,99250.52
2017-12-08T10:34:45.121Z,99251.00
2017-12-08T10:37:47.122Z,99258.59
2017-12-08T10:40:48.415Z,99241.69
2017-12-08T10:43:49.733Z,99254.45
2017-12-08T10:46:50.992Z,99246.94
2017-12-08T10:49:52.312Z,99238.55
2017-12-08T10:52:53.599Z,99229.47
2017-12-08T10:55:54.882Z,99238.54
2017-12-08T10:58:56.164Z,99234.92
2017-12-08T11:01:57.478Z,99235.84
2017-12-08T11:04:59.520Z,99223.73
2017-12-08T11:08:00.805Z,99230.17
2017-12-08T11:11:02.089Z,99234.19
2017-12-08T11:14:03.388Z,99240.81
2017-12-08T11:17:05.445Z,99245.14
2017-12-08T11:20:07.445Z,99242.16
2017-12-08T11:23:08.715Z,99231.84
2017-12-08T11:26:10.021Z,99231.53
2017-12-08T11:29:11.309Z,99234.80
2017-12-08T11:32:12.817Z,99235.08
2017-12-08T11:35:14.818Z,99244.16
2017-12-08T11:38:16.091Z,99232.95
2017-12-08T11:41:17.377Z,99230.50
2017-12-08T11:44:19.440Z,99234.27
2017-12-08T11:47:21.452Z,99226.58
2017-12-08T11:50:22.706Z,99234.97
2017-12-08T11:53:23.958Z,99227.43
2017-12-08T11:56:25.215Z,99235.29
2017-12-08T11:59:26.508Z,99234.08
2017-12-08T12:02:28.473Z,99241.63
2017-12-08T12:05:30.493Z,99241.08
2017-12-08T12:08:31.718Z,99243.13
2017-12-08T12:11:33.013Z,99241.68
2017-12-08T12:14:34.245Z,99243.80
2017-12-08T12:17:35.502Z,99240.73
2017-12-08T12:20:36.781Z,99263.23
2017-12-08T12:23:38.777Z,99259.56
2017-12-08T12:26:40.054Z,99273.86
2017-12-08T12:29:41.289Z,99268.91
2017-12-08T12:32:42.562Z,99270.13
2017-12-08T12:35:43.800Z,99269.08
2017-12-08T12:38:45.151Z,99274.38
2017-12-08T12:41:46.492Z,99276.44
2017-12-08T12:44:48.260Z,99279.37
2017-12-08T12:47:49.536Z,99287.61
2017-12-08T12:50:51.551Z,99297.36
2017-12-08T12:53:52.832Z,99298.02
2017-12-08T12:56:54.098Z,99299.97
2017-12-08T12:59:56.613Z,99296.72
2017-12-08T13:02:57.850Z,99303.86
2017-12-08T13:05:59.130Z,99316.23
2017-12-08T13:09:00.364Z,99319.17
2017-12-08T13:12:01.644Z,99321.92
2017-12-08T13:15:02.986Z,99312.86
2017-12-08T13:18:05.054Z,99306.75
2017-12-08T13:21:06.351Z,99320.62
2017-12-08T13:24:07.605Z,99326.48
2017-12-08T13:27:08.882Z,99332.66
2017-12-08T13:30:10.144Z,99325.80
2017-12-08T13:33:11.418Z,99331.92
2017-12-08T13:36:13.407Z,99342.70
2017-12-08T13:39:14.976Z,99350.00
2017-12-08T13:42:16.290Z,99357.48
2017-12-08T13:45:18.313Z,99348.92
2017-12-08T13:48:19.626Z,99371.92
2017-12-08T13:51:21.318Z,99373.42
2017-12-08T13:54:41.566Z,99373.27
2017-12-08T13:57:43.561Z,99377.32
2017-12-08T14:00:45.101Z,99385.01
2017-12-08T14:03:46.464Z,99373.47
2017-12-08T14:06:48.337Z,99370.17
2017-12-08T14:09:50.565Z,99350.72
2017-12-08T14:12:51.864Z,99363.97
2017-12-08T14:15:53.853Z,99391.11
2017-12-08T14:19:00.932Z,99399.52
2017-12-08T14:22:02.597Z,99398.69
2017-12-08T14:25:04.718Z,99397.89
2017-12-08T14:28:05.946Z,99405.58
2017-12-08T14:31:08.060Z,99409.30
2017-12-08T14:34:09.316Z,99409.84
2017-12-08T14:37:10.674Z,99413.76
2017-12-08T14:40:11.938Z,99416.46
2017-12-08T14:43:13.306Z,99422.80
2017-12-08T14:46:15.978Z,99412.41
2017-12-08T14:49:17.553Z,99418.12
2017-12-08T14:52:19.084Z,99422.33
2017-12-08T14:55:20.378Z,99408.87
2017-12-08T14:58:21.659Z,99413.05
2017-12-08T15:01:22.958Z,99404.16
2017-12-08T15:04:24.266Z,99416.66
2017-12-08T15:07:25.521Z,99404.56
2017-12-08T15:10:26.791Z,99407.98
2017-12-08T15:13:28.818Z,99417.67
2017-12-08T15:16:30.080Z,99413.25
2017-12-08T15:19:31.356Z,99433.02
2017-12-08T15:22:32.668Z,99443.05
2017-12-08T15:25:33.940Z,99454.52
2017-12-08T15:28:35.931Z,99440.58
2017-12-08T15:31:37.179Z,99440.05
2017-12-08T15:34:38.556Z,99431.39
2017-12-08T15:37:39.932Z,99426.16
2017-12-08T15:40:41.218Z,99441.73
2017-12-08T15:43:43.301Z,99450.12
2017-12-08T15:46:44.640Z,99462.33
2017-12-08T15:49:45.977Z,99466.20
2017-12-08T15:52:48.072Z,99471.86
2017-12-08T15:55:49.336Z,99471.02
2017-12-08T15:58:50.612Z,99474.98
2017-12-08T16:01:51.958Z,99502.35
2017-12-08T16:04:53.248Z,99472.23
2017-12-08T16:07:54.591Z,99458.80
2017-12-08T16:10:56.638Z,99465.75
2017-12-08T16:13:57.923Z,99472.26
2017-12-08T16:16:59.219Z,99465.56
2017-12-08T16:20:00.529Z,99469.90
2017-12-08T16:23:01.861Z,99472.11
2017-12-08T16:26:03.842Z,99462.62
2017-12-08T16:29:05.158Z,99460.09
2017-12-08T16:32:07.145Z,99454.50
2017-12-08T16:35:08.504Z,99469.28
2017-12-08T16:38:09.796Z,99463.63
2017-12-08T16:41:11.110Z,99474.98
2017-12-08T16:44:12.439Z,99476.72
2017-12-08T16:47:14.485Z,99474.95
2017-12-08T16:50:16.568Z,99473.23
2017-12-08T16:53:18.627Z,99478.45
2017-12-08T16:56:20.636Z,99475.32
2017-12-08T16:59:21.861Z,99476.27
2017-12-08T17:02:23.101Z,99481.05
2017-12-08T17:05:24.326Z,99470.94
2017-12-08T17:08:25.617Z,99466.55
2017-12-08T17:11:27.060Z,99461.25
2017-12-08T17:14:28.293Z,99471.48
2017-12-08T17:17:30.321Z,99466.59
2017-12-08T17:20:31.585Z,99463.64
2017-12-08T17:23:33.614Z,99465.27
2017-12-08T17:26:34.862Z,99430.59
2017-12-08T17:29:36.110Z,99458.88
2017-12-08T17:32:37.315Z,99467.57
2017-12-08T17:35:39.333Z,99456.66
2017-12-08T17:38:40.639Z,99469.75
2017-12-08T17:41:41.913Z,99466.20
2017-12-08T17:44:43.190Z,99464.50
2017-12-08T17:47:44.423Z,99467.59
2017-12-08T17:50:45.693Z,99474.52
2017-12-08T17:53:46.944Z,99478.45
2017-12-08T17:56:48.227Z,99479.75
2017-12-08T17:59:49.539Z,99492.34
2017-12-08T18:02:50.799Z,99482.37
2017-12-08T18:05:52.856Z,99487.58
2017-12-08T18:08:54.208Z,99491.07
2017-12-08T18:11:55.476Z,99480.59
2017-12-08T18:14:57.457Z,99475.85
2017-12-08T18:17:58.756Z,99476.25
2017-12-08T18:21:00.042Z,99459.75
2017-12-08T18:24:02.059Z,99460.13
2017-12-08T18:27:03.341Z,99456.16
2017-12-08T18:30:04.624Z,99461.02
2017-12-08T18:33:05.937Z,99471.30
2017-12-08T18:36:07.221Z,99467.05
2017-12-08T18:39:08.550Z,99465.66
2017-12-08T18:42:10.555Z,99470.13
2017-12-08T18:45:11.893Z,99451.75
2017-12-08T18:48:13.174Z,99466.59
2017-12-08T18:51:15.182Z,99465.84
2017-12-08T18:54:17.292Z,99456.67
2017-12-08T18:57:18.542Z,99462.73
2017-12-08T19:00:19.830Z,99450.19
2017-12-08T19:03:21.873Z,99460.16
2017-12-08T19:06:23.163Z,99456.69
2017-12-08T19:09:25.161Z,99481.49
2017-12-08T19:12:26.424Z,99458.21
2017-12-08T19:15:27.737Z,99442.25
2017-12-08T19:18:29.406Z,99459.73
2017-12-08T19:21:31.233Z,99458.84
2017-12-08T19:24:32.552Z,99444.95
2017-12-08T19:27:33.856Z,99437.54
2017-12-08T19:30:35.161Z,99438.31
2017-12-08T19:33:36.977Z,99439.30
2017-12-08T19:36:38.305Z,99431.85
2017-12-08T19:39:40.009Z,99429.08
2017-12-08T19:42:41.311Z,99441.46
2017-12-08T19:45:42.661Z,99444.52
2017-12-08T19:48:44.936Z,99449.30
2017-12-08T19:51:46.304Z,99437.11
2017-12-08T19:54:47.595Z,99454.53
2017-12-08T19:57:49.082Z,99445.37
2017-12-08T20:00:51.384Z,99453.66
2017-12-08T20:03:52.641Z,99447.11
2017-12-08T20:06:54.338Z,99450.19
2017-12-08T20:09:56.036Z,99448.86
2017-12-08T20:12:57.785Z,99456.12
2017-12-08T20:16:00.595Z,99447.01
2017-12-08T20:19:01.930Z,99453.61
2017-12-08T20:22:03.285Z,99441.91
2017-12-08T20:25:04.624Z,99447.92
2017-12-08T20:28:06.008Z,99444.91
2017-12-08T20:31:07.362Z,99461.20
2017-12-08T20:34:09.477Z,99442.48
2017-12-08T20:37:10.792Z,99454.23
2017-12-08T20:40:12.107Z,99455.72
2017-12-08T20:43:13.384Z,99472.95
2017-12-08T20:46:14.698Z,99455.55
2017-12-08T20:49:15.979Z,99449.45
2017-12-08T20:52:18.291Z,99453.94
2017-12-08T20:55:20.478Z,99462.52
2017-12-08T20:58:21.777Z,99456.62
2017-12-08T21:01:23.040Z,99469.28
2017-12-08T21:04:24.331Z,99473.56
2017-12-08T21:07:25.647Z,99468.78
2017-12-08T21:10:26.911Z,99479.09
2017-12-08T21:13:28.923Z,99476.96
2017-12-08T21:16:30.219Z,99480.08
2017-12-08T21:19:32.206Z,99485.28
2017-12-08T21:22:33.555Z,99493.69
2017-12-08T21:25:34.854Z,99501.10
2017-12-08T21:28:36.143Z,99492.30
2017-12-08T21:31:38.187Z,99503.24
2017-12-08T21:34:39.426Z,99513.67
2017-12-08T21:37:40.731Z,99500.67
2017-12-08T21:40:42.014Z,99506.72
2017-12-08T21:43:43.307Z,99510.20
2017-12-08T21:46:44.592Z,99511.47
2017-12-08T21:49:45.909Z,99511.45
2017-12-08T21:52:47.229Z,99507.16
2017-12-08T21:55:49.224Z,99504.97
2017-12-08T21:58:50.510Z,99513.14
2017-12-08T22:01:51.793Z,99503.17
2017-12-08T22:04:53.145Z,99503.08
2017-12-08T22:07:55.130Z,99524.94
2017-12-08T22:10:56.548Z,99520.58
2017-12-08T22:13:57.968Z,99520.16
2017-12-08T22:16:59.313Z,99510.19
2017-12-08T22:20:00.685Z,99511.05
2017-12-08T22:23:01.987Z,99512.33
2017-12-08T22:26:03.333Z,99522.34
2017-12-08T22:29:04.716Z,99526.67
2017-12-08T22:32:06.071Z,99528.39
2017-12-08T22:35:07.367Z,99540.89
2017-12-08T22:38:09.746Z,99547.12
2017-12-08T22:41:11.833Z,99555.31
2017-12-08T22:44:13.140Z,99530.06
2017-12-08T22:47:14.538Z,99558.33
2017-12-08T22:50:15.877Z,99551.54
2017-12-08T22:53:17.171Z,99551.47
2017-12-08T22:56:18.532Z,99551.42
2017-12-08T23:02:28.104Z,99560.08
2017-12-08T23:05:29.431Z,99551.10
2017-12-08T23:08:30.745Z,99557.58
2017-12-08T23:11:32.068Z,99573.69
2017-12-08T23:14:34.116Z,99573.32
2017-12-08T23:17:35.412Z,99572.91
2017-12-08T23:20:36.688Z,99567.59
2017-12-08T23:23:37.970Z,99560.17
2017-12-08T23:26:39.217Z,99574.81
2017-12-08T23:29:40.554Z,99558.44
2017-12-08T23:32:41.820Z,99566.30
2017-12-08T23:35:43.876Z,99564.16
2017-12-08T23:38:45.102Z,99565.89
2017-12-08T23:41:46.376Z,99562.81
2017-12-08T23:44:47.645Z,99572.03
2017-12-08T23:47:49.702Z,99576.33
2017-12-08T23:50:51.746Z,99571.07
2017-12-08T23:53:53.033Z,99572.84
2017-12-08T23:56:54.290Z,99583.32
2017-12-08T23:59:55.524Z,99586.83
